Time;durP1;ratioP1;P1;durP2;ratioP2;P2;SDS_P1;SDS_P2;PMS_P1;PMS_P2;Temp;Humidity;BMP_temperature;BMP_pressure;BME280_temperature;BME280_humidity;BME280_pressure;Samples;Min_cycle;Max_cycle;Signal;HPM_P1;HPM_P2
2023/11/25 00:01:19;;;;;;;6.43;1.93;;;;;;;;;;5085203;28;20103;-61
2023/11/25 00:03:47;;;;;;;6.13;1.50;;;;;;;;;;5093164;28;20441;-59
2023/11/25 00:06:12;;;;;;;5.65;2.08;;;;;;;;;;5091559;28;20528;-61
2023/11/25 00:08:39;;;;;;;10.23;5.93;;;;;;;;;;5077274;28;20107;-61
2023/11/25 00:11:04;;;;;;;11.15;8.07;;;;;;;;;;5090050;28;20051;-60
2023/11/25 00:13:30;;;;;;;5.50;1.40;;;;;;;;;;5083515;28;20063;-60
2023/11/25 00:15:55;;;;;;;7.00;1.60;;;;;;;;;;5086059;28;20023;-60
2023/11/25 00:18:20;;;;;;;4.00;1.50;;;;;;;;;;5089133;28;20484;-61
2023/11/25 00:20:46;;;;;;;6.63;1.17;;;;;;;;;;5073966;28;20032;-61
2023/11/25 00:23:11;;;;;;;3.92;1.20;;;;;;;;;;5080275;28;20045;-60
2023/11/25 00:25:37;;;;;;;3.07;1.10;;;;;;;;;;5087136;28;20020;-60
2023/11/25 00:28:04;;;;;;;3.07;0.80;;;;;;;;;;5082148;28;20048;-61
2023/11/25 00:30:29;;;;;;;2.88;0.70;;;;;;;;;;5076272;28;20436;-60
2023/11/25 00:32:55;;;;;;;2.10;0.60;;;;;;;;;;5089833;28;20054;-62
2023/11/25 00:35:20;;;;;;;1.52;0.50;;;;;;;;;;5097293;28;20024;-61
2023/11/25 00:37:45;;;;;;;2.20;0.70;;;;;;;;;;5084939;28;20107;-60
2023/11/25 00:40:10;;;;;;;3.40;0.70;;;;;;;;;;5092488;28;20498;-61
2023/11/25 00:42:36;;;;;;;3.47;0.60;;;;;;;;;;5089036;28;20032;-60
2023/11/25 00:45:03;;;;;;;3.42;0.60;;;;;;;;;;5080843;28;20415;-61
2023/11/25 00:47:29;;;;;;;3.08;0.60;;;;;;;;;;5093788;28;20081;-59
2023/11/25 00:49:55;;;;;;;4.80;0.60;;;;;;;;;;5099859;28;20012;-60
2023/11/25 00:52:20;;;;;;;2.78;0.50;;;;;;;;;;5103827;28;20024;-62
2023/11/25 00:54:45;;;;;;;1.92;0.50;;;;;;;;;;5096745;28;20031;-59
2023/11/25 00:57:11;;;;;;;1.80;0.50;;;;;;;;;;5100949;28;20082;-61
2023/11/25 00:59:36;;;;;;;0.95;0.40;;;;;;;;;;5087710;28;20032;-60
2023/11/25 01:02:01;;;;;;;1.58;0.50;;;;;;;;;;5087006;28;20102;-64
2023/11/25 01:04:27;;;;;;;6.60;0.57;;;;;;;;;;5091947;28;20024;-61
2023/11/25 01:06:52;;;;;;;1.90;0.50;;;;;;;;;;5071996;28;20052;-60
2023/11/25 01:09:19;;;;;;;2.83;0.50;;;;;;;;;;5087744;28;20024;-60
2023/11/25 01:11:44;;;;;;;2.35;0.50;;;;;;;;;;5091643;28;20016;-60
2023/11/25 01:14:09;;;;;;;3.67;0.67;;;;;;;;;;5091491;28;20442;-60
2023/11/25 01:16:35;;;;;;;4.15;0.70;;;;;;;;;;5082835;28;20020;-60
2023/11/25 01:19:00;;;;;;;3.22;0.80;;;;;;;;;;5082698;28;20024;-60
2023/11/25 01:21:25;;;;;;;4.05;0.85;;;;;;;;;;5074963;28;20039;-58
2023/11/25 01:23:51;;;;;;;2.97;0.90;;;;;;;;;;5085843;28;20027;-59
2023/11/25 01:26:16;;;;;;;2.70;0.70;;;;;;;;;;5081895;28;20388;-60
2023/11/25 01:28:42;;;;;;;3.57;0.90;;;;;;;;;;5081001;28;20021;-61
2023/11/25 01:31:07;;;;;;;2.38;0.80;;;;;;;;;;5082555;28;20392;-61
2023/11/25 01:33:33;;;;;;;4.20;0.95;;;;;;;;;;5082755;28;20027;-60
2023/11/25 01:35:58;;;;;;;3.60;0.97;;;;;;;;;;5095237;28;20082;-60
2023/11/25 01:38:23;;;;;;;4.37;0.90;;;;;;;;;;5094708;28;20020;-60
2023/11/25 01:40:49;;;;;;;3.72;0.90;;;;;;;;;;5092185;28;20024;-61
2023/11/25 01:43:14;;;;;;;3.58;0.88;;;;;;;;;;5087863;28;20039;-60
2023/11/25 01:45:40;;;;;;;3.33;0.77;;;;;;;;;;5083293;28;20044;-60
2023/11/25 01:48:05;;;;;;;2.78;0.90;;;;;;;;;;5093206;28;20021;-60
2023/11/25 01:50:36;;;;;;;5.38;1.20;;;;;;;;;;5103855;28;20016;-58
2023/11/25 01:53:03;;;;;;;3.33;1.00;;;;;;;;;;5102941;28;20055;-59
2023/11/25 01:55:28;;;;;;;3.53;0.77;;;;;;;;;;5090240;28;20776;-58
2023/11/25 01:57:54;;;;;;;3.17;0.75;;;;;;;;;;5089948;28;20095;-60
2023/11/25 02:00:21;;;;;;;2.78;0.77;;;;;;;;;;5080709;28;20036;-60
2023/11/25 02:02:49;;;;;;;4.03;1.00;;;;;;;;;;5083993;28;20466;-59
2023/11/25 02:05:14;;;;;;;3.63;0.90;;;;;;;;;;5086787;28;20020;-59
2023/11/25 02:07:41;;;;;;;4.37;1.00;;;;;;;;;;5088802;28;20030;-60
2023/11/25 02:10:06;;;;;;;4.03;0.95;;;;;;;;;;5090358;28;20032;-62
2023/11/25 02:12:32;;;;;;;2.88;0.90;;;;;;;;;;5079357;28;20081;-60
2023/11/25 02:14:57;;;;;;;5.03;1.00;;;;;;;;;;5089392;28;20103;-60
2023/11/25 02:17:22;;;;;;;4.00;0.90;;;;;;;;;;5086410;28;20071;-59
2023/11/25 02:19:48;;;;;;;3.72;0.90;;;;;;;;;;5079440;28;20524;-60
2023/11/25 02:22:15;;;;;;;4.72;1.38;;;;;;;;;;5071270;28;20040;-61
2023/11/25 02:24:41;;;;;;;3.45;1.00;;;;;;;;;;5078209;28;20028;-58
2023/11/25 02:27:07;;;;;;;5.72;1.20;;;;;;;;;;5089453;28;20020;-59
2023/11/25 02:29:32;;;;;;;2.88;0.90;;;;;;;;;;5072883;28;20028;-61
2023/11/25 02:31:58;;;;;;;4.00;1.02;;;;;;;;;;5081173;28;20016;-61
2023/11/25 02:34:24;;;;;;;10.20;3.17;;;;;;;;;;5081449;28;20020;-59
2023/11/25 02:36:50;;;;;;;4.82;1.30;;;;;;;;;;5074230;28;20048;-59
2023/11/25 02:39:17;;;;;;;6.03;1.30;;;;;;;;;;5070866;28;20157;-61
2023/11/25 02:41:45;;;;;;;4.63;1.13;;;;;;;;;;5092667;28;20111;-58
2023/11/25 02:44:11;;;;;;;6.00;1.10;;;;;;;;;;5107988;28;20016;-59
2023/11/25 02:46:38;;;;;;;4.35;1.30;;;;;;;;;;5090675;28;20016;-59
2023/11/25 02:49:03;;;;;;;5.15;1.55;;;;;;;;;;5091556;28;20103;-59
2023/11/25 02:51:31;;;;;;;3.60;0.90;;;;;;;;;;5094102;28;20024;-60
2023/11/25 02:53:56;;;;;;;4.43;1.30;;;;;;;;;;5097070;28;20046;-61
2023/11/25 02:56:22;;;;;;;4.20;1.07;;;;;;;;;;5093469;28;20058;-60
2023/11/25 02:58:47;;;;;;;4.30;1.00;;;;;;;;;;5094717;28;20013;-60
2023/11/25 03:01:14;;;;;;;5.53;1.00;;;;;;;;;;5093467;28;20462;-58
2023/11/25 03:03:42;;;;;;;5.93;1.20;;;;;;;;;;5093827;28;20369;-60
2023/11/25 03:06:08;;;;;;;4.03;0.95;;;;;;;;;;5094845;28;20020;-60
2023/11/25 03:08:34;;;;;;;7.22;1.00;;;;;;;;;;5098065;28;20084;-61
2023/11/25 03:11:00;;;;;;;4.47;1.00;;;;;;;;;;5100303;28;20019;-58
2023/11/25 03:13:25;;;;;;;4.22;0.90;;;;;;;;;;5095844;28;20041;-60
2023/11/25 03:15:51;;;;;;;6.10;1.20;;;;;;;;;;5094683;28;20016;-60
2023/11/25 03:18:16;;;;;;;4.75;1.00;;;;;;;;;;5091224;28;20055;-59
2023/11/25 03:20:41;;;;;;;4.67;1.07;;;;;;;;;;5086838;28;20032;-59
2023/11/25 03:23:07;;;;;;;5.37;1.00;;;;;;;;;;5094037;28;20056;-58
2023/11/25 03:25:32;;;;;;;3.90;0.90;;;;;;;;;;5092579;28;20084;-59
2023/11/25 03:27:57;;;;;;;5.33;1.10;;;;;;;;;;5094007;28;20020;-59
2023/11/25 03:30:23;;;;;;;6.82;1.20;;;;;;;;;;5092707;28;20483;-60
2023/11/25 03:32:49;;;;;;;4.45;1.05;;;;;;;;;;5102732;28;20098;-61
2023/11/25 03:35:15;;;;;;;3.60;1.00;;;;;;;;;;5093764;28;20495;-59
2023/11/25 03:37:40;;;;;;;4.63;1.00;;;;;;;;;;5093855;28;20020;-59
2023/11/25 03:40:07;;;;;;;4.47;0.98;;;;;;;;;;5092031;28;20029;-60
2023/11/25 03:42:34;;;;;;;5.18;1.23;;;;;;;;;;5092101;28;20032;-61
2023/11/25 03:44:59;;;;;;;3.97;0.70;;;;;;;;;;5093423;28;20421;-59
2023/11/25 03:47:25;;;;;;;4.80;1.10;;;;;;;;;;5086110;28;20138;-60
2023/11/25 03:49:50;;;;;;;6.40;1.10;;;;;;;;;;5093458;28;20047;-61
2023/11/25 03:52:15;;;;;;;6.70;1.10;;;;;;;;;;5108468;28;20015;-61
2023/11/25 03:54:40;;;;;;;4.83;1.37;;;;;;;;;;5123905;28;20019;-59
2023/11/25 03:57:06;;;;;;;5.63;1.03;;;;;;;;;;5121269;28;20047;-61
2023/11/25 03:59:31;;;;;;;6.07;0.80;;;;;;;;;;5123555;28;20022;-61
2023/11/25 04:01:56;;;;;;;4.10;0.90;;;;;;;;;;5106876;28;20032;-59
2023/11/25 04:04:22;;;;;;;7.17;1.20;;;;;;;;;;5090205;28;20024;-59
2023/11/25 04:06:47;;;;;;;7.50;1.03;;;;;;;;;;5094318;28;20019;-58
2023/11/25 04:09:13;;;;;;;6.97;0.93;;;;;;;;;;5103855;28;20148;-59
2023/11/25 04:11:40;;;;;;;7.20;0.85;;;;;;;;;;5094951;28;20108;-62
2023/11/25 04:14:05;;;;;;;;;;;;;;;;;;5105192;28;20028;-61
2023/11/25 04:16:30;;;;;;;4.90;1.30;;;;;;;;;;5096193;28;19918;-60
2023/11/25 04:18:59;;;;;;;5.45;1.20;;;;;;;;;;5097323;28;20028;-60
2023/11/25 04:21:27;;;;;;;5.07;1.33;;;;;;;;;;5092458;28;20107;-60
2023/11/25 04:23:54;;;;;;;6.45;2.08;;;;;;;;;;5109383;28;20019;-61
2023/11/25 04:26:20;;;;;;;6.40;2.20;;;;;;;;;;5115564;28;20030;-60
2023/11/25 04:28:46;;;;;;;3.72;0.80;;;;;;;;;;5113858;28;20095;-59
2023/11/25 04:31:11;;;;;;;7.15;2.25;;;;;;;;;;5100578;28;20073;-60
2023/11/25 04:33:36;;;;;;;3.97;1.13;;;;;;;;;;5094412;28;20004;-60
2023/11/25 04:36:01;;;;;;;7.67;1.43;;;;;;;;;;5093800;28;20022;-60
2023/11/25 04:38:26;;;;;;;6.00;1.00;;;;;;;;;;5090950;28;20027;-60
2023/11/25 04:40:52;;;;;;;5.18;1.00;;;;;;;;;;5113689;28;20031;-61
2023/11/25 04:43:17;;;;;;;7.63;1.23;;;;;;;;;;5126313;28;20031;-59
2023/11/25 04:45:42;;;;;;;5.70;0.90;;;;;;;;;;5120885;28;20016;-60
2023/11/25 04:48:08;;;;;;;3.97;0.70;;;;;;;;;;5107226;28;20019;-58
2023/11/25 04:50:34;;;;;;;3.70;0.98;;;;;;;;;;5102555;28;20012;-60
2023/11/25 04:52:59;;;;;;;7.10;1.10;;;;;;;;;;5081673;28;20031;-61
2023/11/25 04:55:27;;;;;;;7.43;1.20;;;;;;;;;;5078926;28;20016;-60
2023/11/25 04:57:53;;;;;;;4.40;0.98;;;;;;;;;;5088123;28;20027;-60
2023/11/25 05:00:18;;;;;;;4.15;0.90;;;;;;;;;;5079382;28;20024;-60
2023/11/25 05:02:43;;;;;;;10.13;4.38;;;;;;;;;;5084616;28;20103;-59
2023/11/25 05:05:09;;;;;;;4.87;0.90;;;;;;;;;;5089048;28;20024;-59
2023/11/25 05:07:35;;;;;;;5.97;1.00;;;;;;;;;;5088384;28;20373;-62
2023/11/25 05:10:00;;;;;;;4.60;0.88;;;;;;;;;;5090720;28;20404;-60
2023/11/25 05:12:26;;;;;;;5.95;1.30;;;;;;;;;;5092690;28;20775;-59
2023/11/25 05:14:52;;;;;;;7.63;1.33;;;;;;;;;;5094495;28;20479;-61
2023/11/25 05:17:20;;;;;;;9.10;1.70;;;;;;;;;;5091980;28;20028;-60
2023/11/25 05:19:45;;;;;;;8.27;1.45;;;;;;;;;;5091825;28;20019;-61
2023/11/25 05:22:10;;;;;;;6.90;1.40;;;;;;;;;;5089232;28;20035;-61
2023/11/25 05:24:35;;;;;;;7.93;1.37;;;;;;;;;;5091512;28;20023;-62
2023/11/25 05:27:02;;;;;;;5.40;1.33;;;;;;;;;;5089568;28;20039;-61
2023/11/25 05:29:27;;;;;;;7.13;2.92;;;;;;;;;;5097296;28;20473;-62
2023/11/25 05:31:52;;;;;;;6.37;1.60;;;;;;;;;;5089254;28;20009;-60
2023/11/25 05:34:18;;;;;;;9.40;1.80;;;;;;;;;;5091454;28;20423;-61
2023/11/25 05:36:43;;;;;;;9.43;1.97;;;;;;;;;;5091656;28;20012;-61
2023/11/25 05:39:13;;;;;;;6.85;2.20;;;;;;;;;;5091863;28;20688;-61
2023/11/25 05:41:38;;;;;;;12.98;2.47;;;;;;;;;;5090862;28;20633;-59
2023/11/25 05:44:07;;;;;;;9.70;2.20;;;;;;;;;;5084819;28;20011;-61
2023/11/25 05:46:32;;;;;;;8.68;2.45;;;;;;;;;;5083530;28;20013;-61
2023/11/25 05:48:57;;;;;;;10.27;2.33;;;;;;;;;;5072360;28;20013;-59
2023/11/25 05:51:31;;;;;;;11.37;2.40;;;;;;;;;;5070578;28;20029;-61
2023/11/25 05:53:56;;;;;;;5.95;2.50;;;;;;;;;;5070749;28;20063;-62
2023/11/25 05:56:23;;;;;;;16.20;6.70;;;;;;;;;;5071331;28;20020;-59
2023/11/25 05:58:48;;;;;;;6.75;2.60;;;;;;;;;;5075941;28;20023;-61
2023/11/25 06:01:13;;;;;;;16.17;9.10;;;;;;;;;;5084278;28;20028;-60
2023/11/25 06:03:42;;;;;;;6.77;2.93;;;;;;;;;;5089223;28;20417;-60
2023/11/25 06:06:11;;;;;;;7.50;2.60;;;;;;;;;;5085680;28;20048;-59
2023/11/25 06:08:36;;;;;;;18.88;9.13;;;;;;;;;;5083116;28;20109;-59
2023/11/25 06:11:02;;;;;;;5.75;2.50;;;;;;;;;;5070759;28;20159;-59
2023/11/25 06:13:28;;;;;;;9.20;2.80;;;;;;;;;;5074604;28;20498;-60
2023/11/25 06:15:53;;;;;;;10.40;2.50;;;;;;;;;;5084565;28;20027;-59
2023/11/25 06:18:20;;;;;;;10.60;2.27;;;;;;;;;;5080472;28;20396;-61
2023/11/25 06:20:46;;;;;;;10.13;4.18;;;;;;;;;;5091904;28;20027;-60
2023/11/25 06:23:11;;;;;;;8.48;2.53;;;;;;;;;;5094602;28;20045;-60
2023/11/25 06:25:37;;;;;;;7.05;1.92;;;;;;;;;;5092597;28;20016;-60
2023/11/25 06:28:02;;;;;;;7.63;3.50;;;;;;;;;;5096236;28;20529;-60
2023/11/25 06:30:27;;;;;;;10.77;4.23;;;;;;;;;;5094870;28;20091;-60
2023/11/25 06:32:52;;;;;;;6.33;2.00;;;;;;;;;;5087292;28;20430;-62
2023/11/25 06:35:19;;;;;;;7.45;1.98;;;;;;;;;;5082555;28;20439;-59
2023/11/25 06:37:44;;;;;;;5.47;1.88;;;;;;;;;;5097962;28;20054;-61
2023/11/25 06:40:12;;;;;;;5.30;1.77;;;;;;;;;;5094753;28;20072;-60
2023/11/25 06:42:38;;;;;;;6.93;1.67;;;;;;;;;;5095915;28;20059;-59
2023/11/25 06:45:03;;;;;;;6.13;1.80;;;;;;;;;;5098585;28;20058;-59
2023/11/25 06:47:28;;;;;;;8.88;1.70;;;;;;;;;;5103688;28;20062;-58
2023/11/25 06:49:54;;;;;;;13.90;10.85;;;;;;;;;;5099842;28;20016;-60
2023/11/25 06:52:19;;;;;;;9.60;2.27;;;;;;;;;;5102691;28;20479;-61
2023/11/25 06:54:44;;;;;;;8.90;2.17;;;;;;;;;;5091825;28;20121;-62
2023/11/25 06:57:10;;;;;;;5.70;1.80;;;;;;;;;;5105173;28;20020;-61
2023/11/25 06:59:35;;;;;;;6.70;1.73;;;;;;;;;;5084268;28;20032;-61
2023/11/25 07:02:00;;;;;;;10.30;1.67;;;;;;;;;;5091735;28;20046;-61
2023/11/25 07:04:27;;;;;;;7.37;2.00;;;;;;;;;;5093748;28;20032;-60
2023/11/25 07:06:54;;;;;;;10.88;6.63;;;;;;;;;;5095471;28;20095;-59
2023/11/25 07:09:19;;;;;;;7.43;2.28;;;;;;;;;;5077957;28;20028;-62
2023/11/25 07:11:45;;;;;;;7.53;1.50;;;;;;;;;;5083861;28;20024;-61
2023/11/25 07:14:10;;;;;;;9.40;1.92;;;;;;;;;;5085994;28;20052;-59
2023/11/25 07:16:36;;;;;;;8.23;1.92;;;;;;;;;;5088763;28;20015;-60
2023/11/25 07:19:01;;;;;;;5.57;1.30;;;;;;;;;;5092895;28;20503;-61
2023/11/25 07:21:26;;;;;;;5.87;1.30;;;;;;;;;;5080045;28;20036;-60
2023/11/25 07:23:52;;;;;;;4.72;1.30;;;;;;;;;;5089913;28;20422;-60
2023/11/25 07:26:17;;;;;;;7.80;2.30;;;;;;;;;;5089229;28;20020;-60
2023/11/25 07:28:42;;;;;;;6.57;1.50;;;;;;;;;;5080611;28;20091;-59
2023/11/25 07:31:09;;;;;;;8.73;1.60;;;;;;;;;;5090248;28;20035;-61
2023/11/25 07:33:34;;;;;;;10.00;1.40;;;;;;;;;;5076805;28;20376;-59
2023/11/25 07:36:00;;;;;;;7.18;1.63;;;;;;;;;;5073674;28;20025;-62
2023/11/25 07:38:25;;;;;;;4.82;1.20;;;;;;;;;;5082735;28;20020;-59
2023/11/25 07:40:50;;;;;;;6.28;1.15;;;;;;;;;;5098707;28;20065;-61
2023/11/25 07:43:15;;;;;;;7.07;1.43;;;;;;;;;;5089553;28;20032;-59
2023/11/25 07:45:41;;;;;;;6.17;1.07;;;;;;;;;;5091837;28;20008;-61
2023/11/25 07:48:06;;;;;;;5.38;1.20;;;;;;;;;;5080835;28;20036;-59
2023/11/25 07:50:31;;;;;;;5.63;1.10;;;;;;;;;;5087068;28;20016;-59
2023/11/25 07:52:56;;;;;;;8.00;1.60;;;;;;;;;;5076577;28;20031;-60
2023/11/25 07:55:22;;;;;;;4.10;1.00;;;;;;;;;;5095262;28;20039;-59
2023/11/25 07:57:47;;;;;;;6.10;1.63;;;;;;;;;;5088721;28;20052;-59
2023/11/25 08:00:15;;;;;;;6.13;1.03;;;;;;;;;;5096350;28;20026;-60
2023/11/25 08:02:41;;;;;;;8.77;1.20;;;;;;;;;;5088781;28;20020;-62
2023/11/25 08:05:06;;;;;;;9.80;2.00;;;;;;;;;;5072744;28;20099;-60
2023/11/25 08:07:31;;;;;;;12.60;3.20;;;;;;;;;;5084719;28;20434;-58
2023/11/25 08:09:57;;;;;;;7.75;1.98;;;;;;;;;;5085102;28;20062;-59
2023/11/25 08:12:22;;;;;;;6.25;1.27;;;;;;;;;;5088385;28;20507;-59
2023/11/25 08:14:47;;;;;;;7.73;1.10;;;;;;;;;;5081163;28;20475;-60
2023/11/25 08:17:12;;;;;;;4.27;0.93;;;;;;;;;;5083200;28;20016;-61
2023/11/25 08:19:37;;;;;;;6.25;1.10;;;;;;;;;;5087417;28;20016;-61
2023/11/25 08:22:03;;;;;;;6.00;1.00;;;;;;;;;;5080967;28;20078;-61
2023/11/25 08:24:28;;;;;;;8.77;1.83;;;;;;;;;;5093572;28;20020;-61
2023/11/25 08:26:53;;;;;;;10.27;2.85;;;;;;;;;;5088857;28;20066;-60
2023/11/25 08:29:20;;;;;;;7.90;2.47;;;;;;;;;;5080529;28;20031;-60
2023/11/25 08:31:45;;;;;;;8.70;2.85;;;;;;;;;;5080604;28;20029;-60
2023/11/25 08:34:12;;;;;;;11.33;4.20;;;;;;;;;;5081341;28;20111;-62
2023/11/25 08:36:44;;;;;;;6.57;1.95;;;;;;;;;;5099967;28;20012;-60
2023/11/25 08:39:10;;;;;;;7.85;2.50;;;;;;;;;;5099654;28;20026;-60
2023/11/25 08:41:36;;;;;;;6.80;1.20;;;;;;;;;;5099265;28;20051;-60
2023/11/25 08:44:01;;;;;;;6.90;1.35;;;;;;;;;;5046306;22;20042;-58
2023/11/25 08:46:27;;;;;;;5.23;1.10;;;;;;;;;;5014047;28;20026;-59
2023/11/25 08:48:52;;;;;;;7.03;1.13;;;;;;;;;;5013710;28;20513;-61
2023/11/25 08:51:17;;;;;;;4.47;0.93;;;;;;;;;;5028490;28;20025;-60
2023/11/25 08:53:44;;;;;;;6.10;0.87;;;;;;;;;;5035070;28;20018;-60
2023/11/25 08:56:10;;;;;;;5.15;0.80;;;;;;;;;;5036530;28;20167;-59
2023/11/25 08:58:36;;;;;;;5.53;1.30;;;;;;;;;;5030513;28;20045;-59
2023/11/25 09:01:01;;;;;;;5.00;1.10;;;;;;;;;;5043274;28;20009;-60
2023/11/25 09:03:27;;;;;;;5.50;1.08;;;;;;;;;;5061633;28;20029;-61
2023/11/25 09:05:53;;;;;;;5.93;1.33;;;;;;;;;;5039399;28;20075;-61
2023/11/25 09:08:18;;;;;;;9.27;1.13;;;;;;;;;;5037658;28;20402;-60
2023/11/25 09:10:43;;;;;;;6.33;1.43;;;;;;;;;;5036430;28;20092;-59
2023/11/25 09:13:08;;;;;;;6.20;0.83;;;;;;;;;;5033540;28;20029;-59
2023/11/25 09:15:34;;;;;;;5.45;1.10;;;;;;;;;;5028683;28;20025;-57
2023/11/25 09:18:01;;;;;;;5.60;1.42;;;;;;;;;;5035444;28;20029;-59
2023/11/25 09:20:26;;;;;;;4.53;0.90;;;;;;;;;;5037330;28;20034;-60
2023/11/25 09:22:52;;;;;;;8.70;1.00;;;;;;;;;;5033249;28;20496;-58
2023/11/25 09:25:17;;;;;;;5.40;0.90;;;;;;;;;;5032812;28;20029;-59
2023/11/25 09:27:43;;;;;;;4.30;0.80;;;;;;;;;;5032459;28;20485;-58
2023/11/25 09:30:11;;;;;;;3.25;0.80;;;;;;;;;;5035139;28;20440;-58
2023/11/25 09:32:36;;;;;;;5.63;1.02;;;;;;;;;;5038160;28;20017;-60
2023/11/25 09:35:02;;;;;;;5.72;0.90;;;;;;;;;;5037272;28;20071;-61
2023/11/25 09:37:27;;;;;;;5.65;1.02;;;;;;;;;;5037942;28;20029;-59
2023/11/25 09:39:52;;;;;;;6.53;1.00;;;;;;;;;;5039558;28;20021;-59
2023/11/25 09:42:17;;;;;;;4.80;1.00;;;;;;;;;;5035983;28;20033;-58
2023/11/25 09:44:42;;;;;;;4.87;1.10;;;;;;;;;;5027838;28;20022;-59
2023/11/25 09:47:08;;;;;;;6.25;1.10;;;;;;;;;;5019386;28;20026;-58
2023/11/25 09:49:33;;;;;;;6.57;0.83;;;;;;;;;;5019187;28;20021;-59
2023/11/25 09:52:04;;;;;;;5.37;1.10;;;;;;;;;;5016268;28;20433;-60
2023/11/25 09:54:29;;;;;;;6.80;1.23;;;;;;;;;;5030717;28;20429;-59
2023/11/25 09:56:55;;;;;;;7.60;1.77;;;;;;;;;;5033419;28;20064;-59
2023/11/25 09:59:20;;;;;;;18.60;4.00;;;;;;;;;;5028728;28;20501;-59
2023/11/25 10:01:46;;;;;;;12.00;4.38;;;;;;;;;;5027038;28;20026;-60
2023/11/25 10:04:13;;;;;;;14.40;4.47;;;;;;;;;;5024202;28;20026;-60
2023/11/25 10:06:38;;;;;;;27.25;9.85;;;;;;;;;;5035942;28;20024;-59
2023/11/25 10:09:05;;;;;;;15.00;4.40;;;;;;;;;;5041202;28;20025;-59
2023/11/25 10:11:32;;;;;;;;;;;;;;;;;;5039456;28;20488;-59
2023/11/25 10:13:57;;;;;;;8.80;2.03;;;;;;;;;;5033419;28;19920;-59
2023/11/25 10:16:29;;;;;;;6.43;1.20;;;;;;;;;;5023161;28;20022;-59
2023/11/25 10:18:56;;;;;;;12.35;1.27;;;;;;;;;;5031249;28;20514;-58
2023/11/25 10:21:21;;;;;;;;;;;;;;;;;;5029103;28;20029;-60
2023/11/25 10:23:46;;;;;;;7.47;1.10;;;;;;;;;;5032737;28;19975;-57
2023/11/25 10:26:16;;;;;;;7.37;1.40;;;;;;;;;;5046948;28;20040;-59
2023/11/25 10:28:44;;;;;;;12.77;2.05;;;;;;;;;;5030262;28;20392;-58
2023/11/25 10:31:09;;;;;;;10.38;2.90;;;;;;;;;;5044111;28;20044;-59
2023/11/25 10:33:37;;;;;;;5.57;1.88;;;;;;;;;;5033459;28;20462;-57
2023/11/25 10:36:03;;;;;;;6.03;1.30;;;;;;;;;;5026221;28;20371;-59
2023/11/25 10:38:29;;;;;;;7.45;1.23;;;;;;;;;;5026574;28;20035;-59
2023/11/25 10:41:01;;;;;;;9.40;1.60;;;;;;;;;;5029770;28;20795;-59
2023/11/25 10:43:27;;;;;;;6.30;1.17;;;;;;;;;;5037166;28;20068;-58
2023/11/25 10:46:05;;;;;;;5.55;1.20;;;;;;;;;;5027520;28;20108;-60
2023/11/25 10:48:31;;;;;;;5.72;1.40;;;;;;;;;;5032394;28;20560;-58
2023/11/25 10:50:57;;;;;;;4.22;1.20;;;;;;;;;;5037294;28;20045;-59
2023/11/25 10:53:26;;;;;;;5.57;1.05;;;;;;;;;;5036622;28;20026;-61
2023/11/25 10:55:53;;;;;;;4.35;2.35;;;;;;;;;;5036460;28;20025;-59
2023/11/25 10:58:19;;;;;;;6.97;1.10;;;;;;;;;;5042345;28;20025;-57
2023/11/25 11:00:44;;;;;;;7.33;1.10;;;;;;;;;;5032363;28;20451;-60
2023/11/25 11:03:10;;;;;;;6.90;1.37;;;;;;;;;;5039689;28;20471;-59
2023/11/25 11:05:35;;;;;;;5.93;1.23;;;;;;;;;;5039207;28;20559;-58
2023/11/25 11:08:06;;;;;;;9.93;1.08;;;;;;;;;;5036522;28;20112;-60
2023/11/25 11:10:36;;;;;;;8.43;1.20;;;;;;;;;;5038504;28;20163;-59
2023/11/25 11:13:06;;;;;;;7.13;1.40;;;;;;;;;;5031781;28;20052;-59
2023/11/25 11:15:34;;;;;;;9.00;1.35;;;;;;;;;;5043423;28;20103;-58
2023/11/25 11:18:18;;;;;;;8.18;1.52;;;;;;;;;;5031629;28;20025;-58
2023/11/25 11:20:46;;;;;;;8.07;2.83;;;;;;;;;;5030342;28;20095;-58
2023/11/25 11:23:12;;;;;;;5.95;1.25;;;;;;;;;;5030899;28;20043;-58
2023/11/25 11:25:38;;;;;;;8.57;1.50;;;;;;;;;;5030488;28;20022;-60
2023/11/25 11:28:11;;;;;;;7.03;1.38;;;;;;;;;;5022882;28;20026;-58
2023/11/25 11:30:55;;;;;;;7.47;1.58;;;;;;;;;;5037033;28;20448;-59
2023/11/25 11:33:21;;;;;;;8.32;2.17;;;;;;;;;;5037294;28;20029;-59
2023/11/25 11:35:46;;;;;;;7.03;3.90;;;;;;;;;;5034151;28;20060;-59
2023/11/25 11:38:31;;;;;;;7.85;1.60;;;;;;;;;;5022620;28;20466;-59
2023/11/25 11:40:58;;;;;;;6.43;1.92;;;;;;;;;;5032956;28;20377;-60
2023/11/25 11:43:23;;;;;;;7.53;1.52;;;;;;;;;;5026849;28;20057;-60
2023/11/25 11:45:49;;;;;;;7.03;2.40;;;;;;;;;;5041033;28;20500;-60
2023/11/25 11:48:14;;;;;;;10.88;2.10;;;;;;;;;;5036165;28;20017;-60
2023/11/25 11:50:43;;;;;;;7.47;1.77;;;;;;;;;;5033266;28;20100;-59
2023/11/25 11:53:14;;;;;;;8.02;1.70;;;;;;;;;;5037955;28;20025;-60
2023/11/25 11:55:41;;;;;;;7.15;1.92;;;;;;;;;;5037079;28;20021;-58
2023/11/25 11:58:10;;;;;;;14.05;2.92;;;;;;;;;;5037146;28;20017;-60
2023/11/25 12:00:55;;;;;;;9.82;1.75;;;;;;;;;;5039970;28;20040;-60
2023/11/25 12:03:21;;;;;;;10.38;1.70;;;;;;;;;;5038568;28;20042;-60
2023/11/25 12:05:47;;;;;;;11.45;1.95;;;;;;;;;;5041142;28;20035;-62
2023/11/25 12:08:12;;;;;;;12.75;2.05;;;;;;;;;;5045441;28;20091;-60
2023/11/25 12:10:38;;;;;;;9.63;2.10;;;;;;;;;;5036181;28;20013;-60
2023/11/25 12:13:04;;;;;;;7.80;1.90;;;;;;;;;;5052049;28;20033;-60
2023/11/25 12:15:32;;;;;;;10.15;2.13;;;;;;;;;;5035783;28;20037;-60
2023/11/25 12:17:58;;;;;;;8.20;1.85;;;;;;;;;;5035346;28;20013;-59
2023/11/25 12:20:26;;;;;;;8.00;2.17;;;;;;;;;;5030757;28;20029;-57
2023/11/25 12:22:51;;;;;;;9.70;2.25;;;;;;;;;;5040826;28;20022;-58
2023/11/25 12:25:17;;;;;;;14.30;3.10;;;;;;;;;;5029933;28;20508;-59
2023/11/25 12:27:58;;;;;;;8.13;2.10;;;;;;;;;;5040291;28;20022;-59
2023/11/25 12:30:24;;;;;;;9.25;2.40;;;;;;;;;;5028323;28;20029;-58
2023/11/25 12:32:49;;;;;;;8.95;2.20;;;;;;;;;;5025697;28;20042;-59
2023/11/25 12:35:15;;;;;;;8.80;2.10;;;;;;;;;;5032660;28;20029;-60
2023/11/25 12:37:44;;;;;;;8.30;2.17;;;;;;;;;;5033667;28;20022;-61
2023/11/25 12:40:18;;;;;;;7.88;1.85;;;;;;;;;;5022209;28;20029;-59
2023/11/25 12:42:43;;;;;;;7.03;2.08;;;;;;;;;;5023897;28;20037;-61
2023/11/25 12:45:08;;;;;;;8.05;2.05;;;;;;;;;;5029290;28;20028;-59
2023/11/25 12:47:48;;;;;;;8.60;2.00;;;;;;;;;;5033985;28;20064;-62
2023/11/25 12:50:13;;;;;;;8.20;1.90;;;;;;;;;;5039171;28;20408;-60
2023/11/25 12:52:38;;;;;;;7.40;2.00;;;;;;;;;;5031475;28;20104;-58
2023/11/25 12:55:07;;;;;;;6.10;1.80;;;;;;;;;;5026056;28;20030;-58
2023/11/25 12:57:32;;;;;;;7.25;2.10;;;;;;;;;;5027791;28;20144;-59
2023/11/25 13:00:05;;;;;;;8.00;2.10;;;;;;;;;;5019916;28;20104;-59
2023/11/25 13:02:30;;;;;;;7.25;1.88;;;;;;;;;;5015864;28;20493;-60
2023/11/25 13:04:56;;;;;;;7.15;1.90;;;;;;;;;;5027111;28;20013;-60
2023/11/25 13:07:31;;;;;;;6.35;2.17;;;;;;;;;;5024205;28;20849;-59
2023/11/25 13:09:56;;;;;;;11.35;2.80;;;;;;;;;;5020417;28;20149;-59
2023/11/25 13:12:21;;;;;;;8.93;2.53;;;;;;;;;;5018798;28;20022;-59
2023/11/25 13:14:47;;;;;;;12.47;3.00;;;;;;;;;;5012618;28;20438;-59
2023/11/25 13:17:13;;;;;;;11.00;4.50;;;;;;;;;;5016014;28;20137;-59
2023/11/25 13:19:39;;;;;;;11.48;4.55;;;;;;;;;;5022590;28;20361;-61
2023/11/25 13:22:04;;;;;;;11.77;3.28;;;;;;;;;;5021523;28;20040;-60
2023/11/25 13:24:30;;;;;;;14.60;4.63;;;;;;;;;;5025325;28;20482;-60
2023/11/25 13:26:55;;;;;;;9.33;3.57;;;;;;;;;;5024133;28;20052;-59
2023/11/25 13:29:20;;;;;;;10.50;3.07;;;;;;;;;;5017871;28;20558;-60
2023/11/25 13:31:46;;;;;;;12.50;4.10;;;;;;;;;;5013391;28;20580;-60
2023/11/25 13:34:12;;;;;;;10.77;4.00;;;;;;;;;;5021610;28;20041;-60
2023/11/25 13:36:38;;;;;;;12.23;3.87;;;;;;;;;;5021976;28;20072;-60
2023/11/25 13:39:04;;;;;;;10.27;3.78;;;;;;;;;;5016039;28;20024;-57
2023/11/25 13:41:29;;;;;;;10.32;3.42;;;;;;;;;;5022886;28;20036;-58
2023/11/25 13:43:54;;;;;;;9.13;3.28;;;;;;;;;;5023842;28;20022;-59
2023/11/25 13:46:19;;;;;;;9.40;3.10;;;;;;;;;;5026391;28;20409;-61
2023/11/25 13:48:45;;;;;;;10.53;4.13;;;;;;;;;;5029201;28;20026;-60
2023/11/25 13:51:10;;;;;;;10.20;4.23;;;;;;;;;;5026365;28;20037;-60
2023/11/25 13:53:35;;;;;;;9.18;3.85;;;;;;;;;;5016798;28;20026;-59
2023/11/25 13:56:00;;;;;;;11.40;3.60;;;;;;;;;;5024939;28;20026;-60
2023/11/25 13:58:26;;;;;;;7.80;3.67;;;;;;;;;;5021667;28;20068;-60
2023/11/25 14:00:51;;;;;;;9.83;3.70;;;;;;;;;;5032964;28;20393;-60
2023/11/25 14:03:16;;;;;;;10.23;3.47;;;;;;;;;;5025248;28;20021;-60
2023/11/25 14:05:45;;;;;;;8.40;3.03;;;;;;;;;;5031574;28;20037;-60
2023/11/25 14:08:12;;;;;;;6.05;2.33;;;;;;;;;;5022314;28;20018;-60
2023/11/25 14:10:38;;;;;;;6.55;2.45;;;;;;;;;;5014422;28;20025;-59
2023/11/25 14:13:05;;;;;;;5.97;2.15;;;;;;;;;;5011489;28;20033;-59
2023/11/25 14:15:30;;;;;;;7.85;2.60;;;;;;;;;;5031296;28;20071;-60
2023/11/25 14:17:55;;;;;;;6.43;2.50;;;;;;;;;;5019577;28;20484;-60
2023/11/25 14:20:21;;;;;;;5.50;2.20;;;;;;;;;;5030241;28;20537;-60
2023/11/25 14:22:46;;;;;;;7.23;2.60;;;;;;;;;;5023048;28;20363;-59
2023/11/25 14:25:15;;;;;;;12.60;3.35;;;;;;;;;;5027902;28;20022;-59
2023/11/25 14:27:41;;;;;;;9.88;3.10;;;;;;;;;;5014941;28;20021;-59
2023/11/25 14:30:07;;;;;;;9.23;3.30;;;;;;;;;;5030768;28;20045;-59
2023/11/25 14:32:32;;;;;;;5.05;1.90;;;;;;;;;;5026025;28;20040;-58
2023/11/25 14:34:57;;;;;;;5.07;1.70;;;;;;;;;;5026551;28;20026;-59
2023/11/25 14:37:22;;;;;;;3.70;1.40;;;;;;;;;;5025418;28;20040;-59